createdAt,value
2023-02-24T00:02:00.994Z,4.20
2023-02-24T00:04:30.070Z,4.20
2023-02-24T00:06:56.722Z,4.20
2023-02-24T00:09:26.365Z,4.20
2023-02-24T00:11:59.999Z,4.30
2023-02-24T00:14:29.509Z,4.30
2023-02-24T00:16:56.838Z,4.30
2023-02-24T00:19:26.081Z,4.30
2023-02-24T00:21:54.277Z,4.40
2023-02-24T00:24:24.054Z,4.30
2023-02-24T00:26:59.857Z,4.30
2023-02-24T00:29:28.827Z,4.30
2023-02-24T00:32:00.931Z,4.30
2023-02-24T00:34:29.515Z,4.30
2023-02-24T00:36:56.742Z,4.40
2023-02-24T00:39:28.382Z,4.30
2023-02-24T00:42:04.122Z,4.40
2023-02-24T00:44:34.809Z,4.40
2023-02-24T00:47:02.555Z,4.40
2023-02-24T00:49:29.225Z,4.40
2023-02-24T00:51:56.379Z,4.40
2023-02-24T00:54:25.518Z,4.40
2023-02-24T00:56:52.071Z,4.40
2023-02-24T00:59:18.792Z,4.30
2023-02-24T01:01:46.272Z,4.30
2023-02-24T01:04:13.872Z,4.30
2023-02-24T01:06:46.121Z,4.30
2023-02-24T01:09:15.906Z,4.30
2023-02-24T01:12:02.947Z,4.30
2023-02-24T01:14:32.428Z,4.20
2023-02-24T01:16:59.459Z,4.20
2023-02-24T01:19:31.339Z,4.20
2023-02-24T01:21:59.303Z,4.20
2023-02-24T01:24:25.998Z,4.20
2023-02-24T01:26:52.965Z,4.10
2023-02-24T01:29:19.653Z,4.10
2023-02-24T01:31:48.673Z,4.00
2023-02-24T01:34:17.302Z,3.90
2023-02-24T01:36:44.267Z,3.80
2023-02-24T01:39:12.577Z,3.70
2023-02-24T01:41:44.526Z,3.60
2023-02-24T01:44:14.488Z,3.50
2023-02-24T01:46:43.794Z,3.40
2023-02-24T01:49:15.839Z,3.40
2023-02-24T01:51:58.041Z,3.50
2023-02-24T01:54:47.659Z,3.50
2023-02-24T01:57:19.833Z,3.50
2023-02-24T01:59:49.447Z,3.50
2023-02-24T02:02:17.138Z,3.50
2023-02-24T02:04:51.138Z,3.50
2023-02-24T02:07:21.822Z,3.40
2023-02-24T02:09:50.169Z,3.40
2023-02-24T02:12:17.266Z,3.30
2023-02-24T02:14:52.194Z,3.20
2023-02-24T02:17:43.798Z,3.20
2023-02-24T02:20:25.543Z,3.20
2023-02-24T02:23:10.702Z,3.20
2023-02-24T02:26:02.034Z,3.20
2023-02-24T02:29:01.068Z,3.20
2023-02-24T02:32:07.565Z,3.30
2023-02-24T02:34:42.504Z,3.30
2023-02-24T02:37:15.643Z,3.40
2023-02-24T02:40:08.065Z,3.40
2023-02-24T02:42:46.612Z,3.40
2023-02-24T02:45:22.954Z,3.40
2023-02-24T02:48:13.546Z,3.30
2023-02-24T02:50:45.977Z,3.30
2023-02-24T02:53:27.258Z,3.30
2023-02-24T02:56:40.404Z,3.20
2023-02-24T02:59:12.584Z,3.10
2023-02-24T03:01:43.575Z,3.00
2023-02-24T03:04:12.920Z,3.00
2023-02-24T03:06:57.016Z,3.00
2023-02-24T03:09:30.445Z,3.10
2023-02-24T03:12:08.253Z,3.10
2023-02-24T03:14:39.230Z,3.20
2023-02-24T03:17:16.198Z,3.20
2023-02-24T03:19:46.462Z,3.20
2023-02-24T03:22:24.818Z,3.30
2023-02-24T03:24:51.711Z,3.40
2023-02-24T03:27:29.346Z,3.40
2023-02-24T03:30:01.671Z,3.40
2023-02-24T03:32:34.004Z,3.40
2023-02-24T03:35:12.084Z,3.40
2023-02-24T03:37:38.682Z,3.40
2023-02-24T03:40:11.575Z,3.40
2023-02-24T03:42:41.999Z,3.40
2023-02-24T03:45:09.603Z,3.40
2023-02-24T03:47:36.700Z,3.50
2023-02-24T03:50:13.934Z,3.50
2023-02-24T03:52:59.711Z,3.50
2023-02-24T03:55:49.303Z,3.60
2023-02-24T03:58:26.859Z,3.60
2023-02-24T04:01:06.474Z,3.60
2023-02-24T04:03:52.069Z,3.60
2023-02-24T04:06:29.305Z,3.60
2023-02-24T04:09:11.065Z,3.70
2023-02-24T04:12:01.450Z,3.70
2023-02-24T04:14:38.966Z,3.70
2023-02-24T04:17:19.191Z,3.70
2023-02-24T04:19:49.321Z,3.70
2023-02-24T04:22:20.006Z,3.70
2023-02-24T04:24:50.658Z,3.60
2023-02-24T04:27:18.268Z,3.60
2023-02-24T04:29:54.086Z,3.70
2023-02-24T04:32:26.268Z,3.60
2023-02-24T04:34:53.423Z,3.60
2023-02-24T04:37:22.854Z,3.50
2023-02-24T04:39:50.751Z,3.50
2023-02-24T04:42:19.898Z,3.50
2023-02-24T04:44:46.783Z,3.50
2023-02-24T04:47:13.511Z,3.50
2023-02-24T04:49:41.035Z,3.50
2023-02-24T04:52:11.980Z,3.50
2023-02-24T04:54:38.541Z,3.50
2023-02-24T04:57:07.140Z,3.50
2023-02-24T04:59:33.810Z,3.50
2023-02-24T05:02:01.680Z,3.50
2023-02-24T05:04:31.651Z,3.50
2023-02-24T05:06:58.345Z,3.50
2023-02-24T05:09:29.904Z,3.50
2023-02-24T05:11:57.995Z,3.50
2023-02-24T05:14:24.980Z,3.60
2023-02-24T05:16:51.723Z,3.60
2023-02-24T05:19:38.656Z,3.60
2023-02-24T05:22:07.102Z,3.60
2023-02-24T05:24:34.611Z,3.60
2023-02-24T05:27:03.490Z,3.60
2023-02-24T05:29:33.615Z,3.70
2023-02-24T05:32:00.692Z,3.70
2023-02-24T05:34:30.516Z,3.70
2023-02-24T05:36:59.729Z,3.70
2023-02-24T05:39:26.313Z,3.70
2023-02-24T05:41:54.599Z,3.80
2023-02-24T05:44:23.243Z,3.80
2023-02-24T05:46:58.170Z,3.80
2023-02-24T05:49:32.919Z,3.80
2023-02-24T05:52:07.248Z,3.80
2023-02-24T05:54:37.718Z,3.90
2023-02-24T05:57:13.066Z,3.90
2023-02-24T05:59:41.496Z,3.80
2023-02-24T06:02:13.829Z,3.80
2023-02-24T06:04:53.796Z,3.80
2023-02-24T06:07:24.653Z,3.80
2023-02-24T06:09:54.122Z,3.80
2023-02-24T06:12:23.164Z,3.70
2023-02-24T06:14:49.752Z,3.80
2023-02-24T06:17:17.255Z,3.70
2023-02-24T06:19:45.080Z,3.70
2023-02-24T06:22:14.141Z,3.70
2023-02-24T06:24:49.116Z,3.70
2023-02-24T06:27:18.706Z,3.60
2023-02-24T06:29:49.695Z,3.60
2023-02-24T06:32:23.485Z,3.60
2023-02-24T06:34:51.684Z,3.60
2023-02-24T06:37:18.288Z,3.50
2023-02-24T06:39:45.049Z,3.50
2023-02-24T06:42:13.273Z,3.50
2023-02-24T06:44:41.251Z,3.50
2023-02-24T06:47:11.268Z,3.50
2023-02-24T06:49:37.857Z,3.40
2023-02-24T06:52:05.744Z,3.50
2023-02-24T06:54:35.671Z,3.50
2023-02-24T06:57:06.299Z,3.50
2023-02-24T06:59:33.044Z,3.40
2023-02-24T07:02:01.702Z,3.40
2023-02-24T07:04:29.118Z,3.40
2023-02-24T07:07:02.671Z,3.40
2023-02-24T07:09:30.586Z,3.40
2023-02-24T07:11:58.575Z,3.40
2023-02-24T07:14:27.806Z,3.50
2023-02-24T07:16:55.167Z,3.40
2023-02-24T07:19:27.223Z,3.40
2023-02-24T07:22:03.341Z,3.40
2023-02-24T07:24:35.998Z,3.30
2023-02-24T07:27:06.372Z,3.30
2023-02-24T07:29:35.933Z,3.30
2023-02-24T07:32:05.460Z,3.30
2023-02-24T07:34:33.716Z,3.30
2023-02-24T07:37:07.667Z,3.20
2023-02-24T07:39:36.764Z,3.20
2023-02-24T07:42:04.078Z,3.20
2023-02-24T07:44:30.853Z,3.20
2023-02-24T07:46:59.303Z,3.20
2023-02-24T07:49:27.800Z,3.20
2023-02-24T07:51:57.646Z,3.10
2023-02-24T07:54:25.851Z,3.10
2023-02-24T07:56:59.168Z,3.10
2023-02-24T07:59:28.616Z,3.00
2023-02-24T08:01:56.331Z,3.00
2023-02-24T08:04:29.865Z,3.00
2023-02-24T08:06:58.952Z,2.90
2023-02-24T08:09:46.938Z,2.90
2023-02-24T08:12:17.765Z,2.90
2023-02-24T08:14:50.573Z,2.80
2023-02-24T08:17:19.997Z,2.80
2023-02-24T08:20:00.874Z,2.80
2023-02-24T08:22:35.796Z,2.80
2023-02-24T08:25:05.827Z,2.90
2023-02-24T08:27:38.699Z,2.90
2023-02-24T08:30:07.565Z,2.90
2023-02-24T08:32:46.635Z,2.90
2023-02-24T08:35:18.407Z,3.00
2023-02-24T08:37:50.454Z,3.00
2023-02-24T08:40:32.600Z,3.00
2023-02-24T08:43:16.105Z,3.00
2023-02-24T08:45:59.370Z,3.00
2023-02-24T08:48:37.210Z,3.00
2023-02-24T08:51:17.525Z,3.00
2023-02-24T08:53:46.514Z,3.00
2023-02-24T08:56:23.760Z,3.00
2023-02-24T08:58:56.889Z,3.00
2023-02-24T09:01:34.340Z,3.00
2023-02-24T09:04:06.272Z,3.00
2023-02-24T09:07:09.678Z,3.10
2023-02-24T09:09:41.986Z,3.00
2023-02-24T09:12:10.363Z,3.00
2023-02-24T09:14:37.358Z,3.10
2023-02-24T09:17:06.838Z,3.10
2023-02-24T09:19:51.965Z,3.10
2023-02-24T09:22:31.873Z,3.10
2023-02-24T09:25:18.106Z,3.10
2023-02-24T09:28:07.773Z,3.20
2023-02-24T09:30:50.961Z,3.20
2023-02-24T09:33:20.860Z,3.20
2023-02-24T09:35:50.418Z,3.20
2023-02-24T09:38:21.028Z,3.20
2023-02-24T09:40:49.474Z,3.20
2023-02-24T09:43:27.715Z,3.30
2023-02-24T09:46:01.907Z,3.30
2023-02-24T09:49:12.734Z,3.30
2023-02-24T09:51:45.126Z,3.30
2023-02-24T09:54:17.043Z,3.30
2023-02-24T09:57:09.995Z,3.40
2023-02-24T10:00:00.967Z,3.40
2023-02-24T10:02:46.194Z,3.50
2023-02-24T10:05:38.163Z,3.50
2023-02-24T10:08:17.825Z,3.50
2023-02-24T10:11:00.726Z,3.50
2023-02-24T10:13:32.589Z,3.60
2023-02-24T10:16:07.025Z,3.60
2023-02-24T10:19:01.009Z,3.60
2023-02-24T10:22:00.187Z,3.60
2023-02-24T10:24:37.513Z,3.60
2023-02-24T10:27:17.375Z,3.50
2023-02-24T10:30:11.382Z,3.50
2023-02-24T10:33:05.582Z,3.60
2023-02-24T10:35:34.131Z,3.60
2023-02-24T10:38:06.008Z,3.60
2023-02-24T10:40:56.917Z,3.70
2023-02-24T10:43:33.014Z,3.70
2023-02-24T10:46:17.209Z,3.80
2023-02-24T10:48:52.608Z,3.90
2023-02-24T10:51:30.190Z,4.00
2023-02-24T10:54:22.201Z,4.10
2023-02-24T10:57:18.064Z,4.20
2023-02-24T11:00:18.461Z,4.30
2023-02-24T11:03:10.297Z,4.40
2023-02-24T11:06:05.073Z,4.60
2023-02-24T11:08:39.653Z,4.90
2023-02-24T11:11:25.928Z,5.20
2023-02-24T11:14:13.760Z,5.30
2023-02-24T11:17:03.406Z,5.40
2023-02-24T11:19:32.643Z,5.60
2023-02-24T11:21:59.899Z,5.70
2023-02-24T11:24:28.572Z,5.70
2023-02-24T11:26:55.159Z,5.70
2023-02-24T11:29:54.829Z,5.70
2023-02-24T11:32:24.558Z,5.90
2023-02-24T11:35:04.264Z,6.40
2023-02-24T11:37:34.528Z,7.20
2023-02-24T11:40:03.346Z,7.70
2023-02-24T11:42:32.721Z,8.40
2023-02-24T11:45:29.260Z,9.60
2023-02-24T11:48:03.022Z,11.10
2023-02-24T11:50:43.770Z,11.30
2023-02-24T11:53:23.262Z,10.70
2023-02-24T11:55:59.665Z,10.50
2023-02-24T11:58:44.536Z,10.60
2023-02-24T12:01:20.700Z,10.50
2023-02-24T12:04:23.428Z,10.10
2023-02-24T12:06:49.996Z,9.40
2023-02-24T12:09:23.732Z,8.80
2023-02-24T12:12:20.356Z,8.60
2023-02-24T12:14:58.064Z,8.60
2023-02-24T12:17:44.206Z,8.80
2023-02-24T12:20:30.074Z,8.80
2023-02-24T12:23:02.404Z,8.60
2023-02-24T12:25:39.686Z,8.20
2023-02-24T12:28:33.888Z,7.80
2023-02-24T12:31:13.393Z,7.60
2023-02-24T12:33:52.089Z,7.60
2023-02-24T12:36:20.841Z,8.30
2023-02-24T12:39:02.105Z,9.60
2023-02-24T12:41:41.034Z,11.00
2023-02-24T12:44:30.140Z,13.60
2023-02-24T12:47:06.232Z,16.20
2023-02-24T12:49:58.736Z,17.40
2023-02-24T12:52:43.681Z,17.40
2023-02-24T12:55:26.505Z,17.10
2023-02-24T12:58:11.878Z,16.30
2023-02-24T13:01:00.584Z,15.40
2023-02-24T13:03:54.603Z,14.10
2023-02-24T13:06:32.769Z,13.20
2023-02-24T13:09:18.236Z,12.40
2023-02-24T13:11:57.420Z,11.80
2023-02-24T13:14:36.945Z,10.90
2023-02-24T13:17:06.548Z,10.80
2023-02-24T13:19:33.371Z,11.30
2023-02-24T13:22:12.015Z,12.00
2023-02-24T13:24:44.385Z,12.20
2023-02-24T13:27:16.812Z,12.60
2023-02-24T13:29:57.531Z,13.10
2023-02-24T13:32:38.033Z,13.40
2023-02-24T13:35:06.939Z,13.10
2023-02-24T13:37:39.200Z,12.80
2023-02-24T13:40:17.846Z,12.60
2023-02-24T13:42:56.027Z,13.30
2023-02-24T13:45:24.075Z,14.30
2023-02-24T13:48:02.975Z,14.20
2023-02-24T13:50:59.139Z,13.40
2023-02-24T13:53:41.331Z,12.50
2023-02-24T13:56:23.024Z,11.60
2023-02-24T13:59:01.996Z,11.20
2023-02-24T14:01:30.789Z,11.50
2023-02-24T14:04:21.323Z,11.80
2023-02-24T14:06:55.078Z,12.30
2023-02-24T14:09:27.111Z,12.60
2023-02-24T14:12:12.922Z,12.30
2023-02-24T14:14:40.324Z,11.70
2023-02-24T14:17:18.681Z,11.00
2023-02-24T14:19:45.282Z,10.30
2023-02-24T14:22:20.982Z,10.20
2023-02-24T14:24:48.378Z,10.90
2023-02-24T14:27:25.822Z,12.00
2023-02-24T14:29:53.070Z,13.00
2023-02-24T14:32:25.464Z,13.40
2023-02-24T14:34:54.521Z,12.80
2023-02-24T14:37:30.481Z,11.90
2023-02-24T14:39:59.362Z,11.10
2023-02-24T14:42:27.851Z,10.80
2023-02-24T14:44:57.433Z,11.00
2023-02-24T14:47:27.210Z,11.20
2023-02-24T14:49:59.897Z,11.20
2023-02-24T14:52:42.355Z,11.00
2023-02-24T14:55:22.265Z,10.70
2023-02-24T14:58:05.725Z,10.30
2023-02-24T15:00:41.221Z,10.10
2023-02-24T15:03:14.683Z,10.10
2023-02-24T15:05:47.429Z,9.80
2023-02-24T15:08:22.343Z,9.40
2023-02-24T15:10:49.037Z,8.90
2023-02-24T15:13:22.386Z,8.40
2023-02-24T15:15:49.082Z,8.10
2023-02-24T15:18:27.480Z,7.80
2023-02-24T15:21:05.960Z,7.60
2023-02-24T15:23:35.873Z,7.50
2023-02-24T15:26:04.347Z,7.40
2023-02-24T15:28:33.437Z,7.40
2023-02-24T15:31:18.653Z,7.30
2023-02-24T15:33:55.149Z,7.20
2023-02-24T15:36:25.637Z,7.10
2023-02-24T15:38:56.551Z,7.00
2023-02-24T15:41:23.224Z,6.90
2023-02-24T15:43:52.910Z,6.90
2023-02-24T15:46:24.390Z,6.80
2023-02-24T15:48:52.966Z,6.80
2023-02-24T15:51:39.195Z,6.70
2023-02-24T15:54:15.088Z,6.70
2023-02-24T15:56:43.086Z,6.70
2023-02-24T15:59:18.103Z,6.70
2023-02-24T16:01:45.084Z,6.60
2023-02-24T16:04:11.665Z,6.50
2023-02-24T16:06:41.681Z,6.40
2023-02-24T16:09:16.819Z,6.30
2023-02-24T16:11:46.140Z,6.20
2023-02-24T16:14:16.530Z,6.10
2023-02-24T16:16:43.338Z,6.10
2023-02-24T16:19:16.437Z,6.00
2023-02-24T16:21:43.661Z,5.90
2023-02-24T16:24:10.277Z,5.80
2023-02-24T16:26:39.864Z,5.70
2023-02-24T16:29:11.483Z,5.50
2023-02-24T16:31:39.668Z,5.40
2023-02-24T16:34:07.855Z,5.30
2023-02-24T16:36:35.428Z,5.10
2023-02-24T16:39:04.710Z,5.10
2023-02-24T16:41:31.357Z,5.00
2023-02-24T16:43:57.978Z,5.00
2023-02-24T16:46:26.975Z,4.80
2023-02-24T16:48:53.936Z,4.80
2023-02-24T16:51:21.714Z,4.80
2023-02-24T16:53:48.286Z,4.80
2023-02-24T16:56:15.572Z,4.80
2023-02-24T16:58:42.243Z,4.80
2023-02-24T17:01:15.422Z,4.80
2023-02-24T17:03:44.658Z,4.70
2023-02-24T17:06:11.201Z,4.60
2023-02-24T17:08:37.984Z,4.50
2023-02-24T17:11:04.744Z,4.50
2023-02-24T17:13:31.327Z,4.50
2023-02-24T17:15:58.021Z,4.40
2023-02-24T17:18:25.761Z,4.30
2023-02-24T17:20:53.667Z,4.40
2023-02-24T17:23:20.971Z,4.50
2023-02-24T17:25:51.795Z,4.60
2023-02-24T17:28:18.576Z,4.70
2023-02-24T17:30:45.317Z,4.70
2023-02-24T17:33:14.153Z,4.70
2023-02-24T17:35:42.361Z,4.70
2023-02-24T17:38:16.557Z,4.70
2023-02-24T17:40:44.609Z,4.70
2023-02-24T17:43:11.576Z,4.80
2023-02-24T17:45:42.905Z,4.70
2023-02-24T17:48:09.929Z,4.70
2023-02-24T17:50:36.574Z,4.60
2023-02-24T17:53:03.790Z,4.60
2023-02-24T17:55:30.328Z,4.50
2023-02-24T17:57:58.822Z,4.40
2023-02-24T18:00:25.700Z,4.40
2023-02-24T18:02:55.688Z,4.30
2023-02-24T18:05:23.419Z,4.30
2023-02-24T18:07:50.199Z,4.20
2023-02-24T18:10:17.191Z,4.20
2023-02-24T18:12:43.765Z,4.30
2023-02-24T18:15:10.896Z,4.30
2023-02-24T18:17:38.334Z,4.40
2023-02-24T18:20:06.733Z,4.40
2023-02-24T18:22:33.589Z,4.50
2023-02-24T18:25:00.889Z,4.50
2023-02-24T18:27:27.550Z,4.60
2023-02-24T18:29:54.359Z,4.70
2023-02-24T18:32:21.439Z,4.70
2023-02-24T18:34:48.166Z,4.80
2023-02-24T18:37:14.732Z,4.80
2023-02-24T18:39:41.284Z,4.80
2023-02-24T18:42:07.845Z,4.80
2023-02-24T18:44:34.413Z,4.80
2023-02-24T18:47:01.143Z,4.80
2023-02-24T18:49:27.728Z,4.70
2023-02-24T18:51:54.358Z,4.70
2023-02-24T18:54:20.911Z,4.80
2023-02-24T18:56:47.540Z,4.80
2023-02-24T18:59:14.114Z,4.80
2023-02-24T19:01:40.811Z,4.90
2023-02-24T19:04:08.539Z,4.90
2023-02-24T19:06:36.164Z,5.00
2023-02-24T19:09:09.633Z,5.00
2023-02-24T19:11:37.231Z,5.00
2023-02-24T19:14:04.284Z,5.00
2023-02-24T19:16:31.722Z,5.00
2023-02-24T19:18:59.879Z,5.10
2023-02-24T19:21:28.625Z,5.00
2023-02-24T19:23:55.282Z,5.10
2023-02-24T19:26:26.701Z,5.10
2023-02-24T19:28:54.079Z,5.10
2023-02-24T19:31:26.274Z,5.10
2023-02-24T19:34:00.045Z,5.10
2023-02-24T19:36:27.168Z,5.10
2023-02-24T19:38:54.143Z,5.00
2023-02-24T19:41:21.093Z,5.00
2023-02-24T19:43:47.789Z,5.00
2023-02-24T19:46:16.194Z,4.90
2023-02-24T19:48:43.007Z,4.80
2023-02-24T19:51:11.551Z,4.70
2023-02-24T19:53:38.443Z,4.60
2023-02-24T19:56:05.604Z,4.60
2023-02-24T19:58:32.614Z,4.60
2023-02-24T20:01:11.028Z,4.50
2023-02-24T20:03:39.103Z,4.50
2023-02-24T20:06:06.432Z,4.50
2023-02-24T20:08:35.038Z,4.60
2023-02-24T20:11:04.426Z,4.60
2023-02-24T20:13:31.448Z,4.50
2023-02-24T20:16:09.968Z,4.50
2023-02-24T20:18:36.538Z,4.50
2023-02-24T20:21:03.536Z,4.50
2023-02-24T20:23:32.164Z,4.50
2023-02-24T20:25:59.402Z,4.50
2023-02-24T20:28:27.356Z,4.60
2023-02-24T20:30:55.726Z,4.50
2023-02-24T20:33:23.205Z,4.60
2023-02-24T20:35:49.756Z,4.60
2023-02-24T20:38:16.332Z,4.70
2023-02-24T20:40:43.152Z,4.70
2023-02-24T20:43:10.400Z,4.80
2023-02-24T20:45:40.738Z,4.80
2023-02-24T20:48:08.707Z,4.80
2023-02-24T20:50:36.135Z,4.70
2023-02-24T20:53:04.070Z,4.60
2023-02-24T20:55:31.234Z,4.50
2023-02-24T20:57:57.811Z,4.30
2023-02-24T21:00:24.573Z,4.20
2023-02-24T21:02:51.182Z,4.20
2023-02-24T21:05:23.918Z,4.20
2023-02-24T21:07:51.043Z,4.10
2023-02-24T21:10:18.866Z,4.00
2023-02-24T21:12:47.152Z,4.00
2023-02-24T21:15:14.493Z,4.00
2023-02-24T21:17:41.046Z,3.90
2023-02-24T21:20:11.769Z,3.80
2023-02-24T21:22:40.270Z,3.80
2023-02-24T21:25:08.091Z,3.80
2023-02-24T21:27:34.654Z,3.70
2023-02-24T21:30:01.255Z,3.80
2023-02-24T21:32:27.930Z,3.80
2023-02-24T21:34:54.651Z,3.90
2023-02-24T21:37:21.212Z,4.00
2023-02-24T21:39:47.851Z,4.00
2023-02-24T21:42:14.412Z,4.10
2023-02-24T21:44:44.184Z,4.00
2023-02-24T21:47:11.333Z,4.00
2023-02-24T21:49:37.935Z,4.00
2023-02-24T21:52:09.690Z,4.00
2023-02-24T21:54:37.199Z,4.10
2023-02-24T21:57:04.071Z,4.10
2023-02-24T21:59:30.663Z,4.10
2023-02-24T22:01:57.311Z,4.10
2023-02-24T22:04:23.919Z,4.10
2023-02-24T22:06:50.484Z,4.10
2023-02-24T22:09:20.352Z,4.10
2023-02-24T22:11:48.699Z,4.10
2023-02-24T22:14:15.733Z,4.10
2023-02-24T22:16:42.848Z,4.10
2023-02-24T22:19:09.981Z,4.20
2023-02-24T22:21:36.672Z,4.30
2023-02-24T22:24:03.830Z,4.20
2023-02-24T22:26:32.054Z,4.30
2023-02-24T22:28:59.397Z,4.30
2023-02-24T22:31:30.680Z,4.30
2023-02-24T22:33:58.478Z,4.30
2023-02-24T22:36:27.999Z,4.30
2023-02-24T22:38:57.168Z,4.30
2023-02-24T22:41:27.006Z,4.20
2023-02-24T22:43:53.995Z,4.20
2023-02-24T22:46:24.807Z,4.20
2023-02-24T22:48:51.674Z,4.20
2023-02-24T22:51:19.380Z,4.20
2023-02-24T22:53:48.754Z,4.10
2023-02-24T22:56:21.694Z,4.10
2023-02-24T22:58:49.414Z,4.00
2023-02-24T23:01:19.438Z,3.90
2023-02-24T23:03:46.481Z,3.80
2023-02-24T23:06:15.835Z,3.70
2023-02-24T23:08:45.849Z,3.60
2023-02-24T23:11:15.319Z,3.50
2023-02-24T23:13:44.613Z,3.40
2023-02-24T23:16:14.121Z,3.40
2023-02-24T23:18:41.325Z,3.40
2023-02-24T23:21:09.842Z,3.30
2023-02-24T23:23:37.566Z,3.20
2023-02-24T23:26:05.263Z,3.10
2023-02-24T23:28:32.106Z,3.10
2023-02-24T23:30:59.237Z,3.10
2023-02-24T23:33:26.401Z,3.10
2023-02-24T23:35:52.973Z,3.10
2023-02-24T23:38:19.614Z,3.00
2023-02-24T23:40:50.958Z,3.00
2023-02-24T23:43:18.110Z,3.00
2023-02-24T23:45:45.342Z,2.90
2023-02-24T23:48:14.010Z,2.90
2023-02-24T23:50:42.236Z,2.80
2023-02-24T23:53:09.130Z,2.70
2023-02-24T23:55:38.203Z,2.80
2023-02-24T23:58:04.905Z,2.80
